createdAt,value
2019-03-20T00:00:05.789Z,9.00
2019-03-20T00:02:52.187Z,8.13
2019-03-20T00:05:38.366Z,8.73
2019-03-20T00:08:24.679Z,9.10
2019-03-20T00:11:11.195Z,8.73
2019-03-20T00:13:57.088Z,8.27
2019-03-20T00:16:43.265Z,9.47
2019-03-20T00:19:30.012Z,9.20
2019-03-20T00:22:16.027Z,8.97
2019-03-20T00:25:03.786Z,9.37
2019-03-20T00:27:50.634Z,9.07
2019-03-20T00:30:36.790Z,9.37
2019-03-20T00:33:22.881Z,9.00
2019-03-20T00:36:09.315Z,10.20
2019-03-20T00:38:55.531Z,9.70
2019-03-20T00:41:42.235Z,10.43
2019-03-20T00:44:28.943Z,10.33
2019-03-20T00:47:15.164Z,11.17
2019-03-20T00:50:01.575Z,10.53
2019-03-20T00:52:47.767Z,11.77
2019-03-20T00:55:33.978Z,11.40
2019-03-20T00:58:20.591Z,11.30
2019-03-20T01:01:07.511Z,12.63
2019-03-20T01:03:53.927Z,11.10
2019-03-20T01:06:39.831Z,11.80
2019-03-20T01:09:26.548Z,12.67
2019-03-20T01:12:12.861Z,12.00
2019-03-20T01:14:59.575Z,12.57
2019-03-20T01:17:46.849Z,12.70
2019-03-20T01:20:32.911Z,13.33
2019-03-20T01:23:19.117Z,12.47
2019-03-20T01:26:05.226Z,13.77
2019-03-20T01:28:51.326Z,13.57
2019-03-20T01:31:38.052Z,14.67
2019-03-20T01:34:24.679Z,12.97
2019-03-20T01:37:10.676Z,14.37
2019-03-20T01:39:57.318Z,14.00
2019-03-20T01:42:44.296Z,13.40
2019-03-20T01:45:30.291Z,14.90
2019-03-20T01:48:16.487Z,14.30
2019-03-20T01:51:22.755Z,15.40
2019-03-20T01:54:09.260Z,15.13
2019-03-20T01:56:54.947Z,15.40
2019-03-20T01:59:41.672Z,14.23
2019-03-20T02:02:27.771Z,14.73
2019-03-20T02:05:14.559Z,14.83
2019-03-20T02:08:01.499Z,15.70
2019-03-20T02:10:47.538Z,16.27
2019-03-20T02:13:33.588Z,15.90
2019-03-20T02:16:21.498Z,17.37
2019-03-20T02:19:08.010Z,16.43
2019-03-20T02:21:54.424Z,15.63
2019-03-20T02:24:40.847Z,16.17
2019-03-20T02:27:29.727Z,16.10
2019-03-20T02:30:16.316Z,16.23
2019-03-20T02:33:03.191Z,17.97
2019-03-20T02:35:51.786Z,17.37
2019-03-20T02:38:37.942Z,17.43
2019-03-20T02:41:24.534Z,16.70
2019-03-20T02:44:10.929Z,17.80
2019-03-20T02:46:57.025Z,17.13
2019-03-20T02:49:43.926Z,15.93
2019-03-20T02:52:30.248Z,17.33
2019-03-20T02:55:16.571Z,16.33
2019-03-20T02:58:03.525Z,17.63
2019-03-20T03:00:50.019Z,19.57
2019-03-20T03:03:36.127Z,17.73
2019-03-20T03:06:22.848Z,18.83
2019-03-20T03:09:10.203Z,18.57
2019-03-20T03:11:56.498Z,18.60
2019-03-20T03:14:42.939Z,19.73
2019-03-20T03:17:30.616Z,20.37
2019-03-20T03:20:17.017Z,20.50
2019-03-20T03:23:03.417Z,21.43
2019-03-20T03:25:50.321Z,20.90
2019-03-20T03:28:36.591Z,20.70
2019-03-20T03:31:22.997Z,20.37
2019-03-20T03:34:09.650Z,20.83
2019-03-20T03:36:56.016Z,19.93
2019-03-20T03:39:42.316Z,20.73
2019-03-20T03:42:28.489Z,19.97
2019-03-20T03:45:16.907Z,18.60
2019-03-20T03:48:03.103Z,20.33
2019-03-20T03:50:49.231Z,19.13
2019-03-20T03:53:35.709Z,19.03
2019-03-20T03:56:22.356Z,19.87
2019-03-20T03:59:08.790Z,21.77
2019-03-20T04:01:55.642Z,20.50
2019-03-20T04:04:41.581Z,19.87
2019-03-20T04:07:28.926Z,20.97
2019-03-20T04:10:15.288Z,20.03
2019-03-20T04:13:01.816Z,20.30
2019-03-20T04:15:48.427Z,20.93
2019-03-20T04:18:35.749Z,19.90
2019-03-20T04:21:21.693Z,20.00
2019-03-20T04:24:07.630Z,21.03
2019-03-20T04:26:54.438Z,20.63
2019-03-20T04:29:40.535Z,21.43
2019-03-20T04:32:26.643Z,22.33
2019-03-20T04:35:14.486Z,21.33
2019-03-20T04:38:00.599Z,21.50
2019-03-20T04:40:46.497Z,20.67
2019-03-20T04:43:33.017Z,20.27
2019-03-20T04:46:19.537Z,21.73
2019-03-20T04:49:05.637Z,22.00
2019-03-20T04:51:52.595Z,20.87
2019-03-20T04:54:40.132Z,21.30
2019-03-20T04:57:26.429Z,21.43
2019-03-20T05:00:14.709Z,22.83
2019-03-20T05:03:01.176Z,22.67
2019-03-20T05:05:47.541Z,21.57
2019-03-20T05:08:33.961Z,21.87
2019-03-20T05:11:20.388Z,22.23
2019-03-20T05:14:06.507Z,20.80
2019-03-20T05:16:52.734Z,21.33
2019-03-20T05:19:39.407Z,22.63
2019-03-20T05:22:26.060Z,20.77
2019-03-20T05:25:12.001Z,18.90
2019-03-20T05:27:58.529Z,20.40
2019-03-20T05:30:44.856Z,21.30
2019-03-20T05:33:31.255Z,22.70
2019-03-20T05:36:17.906Z,20.60
2019-03-20T05:39:06.480Z,21.90
2019-03-20T05:41:53.450Z,21.07
2019-03-20T05:44:42.040Z,19.70
2019-03-20T05:47:28.666Z,20.77
2019-03-20T05:50:16.924Z,19.27
2019-03-20T05:53:03.827Z,20.73
2019-03-20T05:55:51.111Z,19.80
2019-03-20T05:58:39.291Z,18.63
2019-03-20T06:01:25.768Z,18.97
2019-03-20T06:04:11.457Z,19.90
2019-03-20T06:06:57.567Z,19.57
2019-03-20T06:09:45.043Z,18.97
2019-03-20T06:12:31.128Z,19.20
2019-03-20T06:15:17.928Z,19.27
2019-03-20T06:18:04.272Z,19.00
2019-03-20T06:20:52.585Z,19.27
2019-03-20T06:23:39.065Z,18.77
2019-03-20T06:26:25.673Z,17.60
2019-03-20T06:29:11.477Z,16.57
2019-03-20T06:31:58.281Z,17.90
2019-03-20T06:34:44.270Z,17.20
2019-03-20T06:37:32.827Z,15.60
2019-03-20T06:40:18.989Z,14.60
2019-03-20T06:43:05.103Z,16.17
2019-03-20T06:45:51.297Z,14.67
2019-03-20T06:48:37.869Z,15.57
2019-03-20T06:51:24.000Z,15.97
2019-03-20T06:54:10.101Z,15.17
2019-03-20T06:56:56.698Z,15.17
2019-03-20T07:00:35.530Z,15.00
2019-03-20T07:04:15.718Z,15.30
2019-03-20T07:07:12.469Z,15.27
2019-03-20T07:10:17.986Z,16.07
2019-03-20T07:13:03.978Z,14.20
2019-03-20T07:15:50.380Z,12.63
2019-03-20T07:18:36.953Z,10.97
2019-03-20T07:21:23.658Z,12.37
2019-03-20T07:24:10.204Z,12.63
2019-03-20T07:26:56.417Z,12.57
2019-03-20T07:29:42.833Z,12.20
2019-03-20T07:32:30.174Z,13.33
2019-03-20T07:35:17.096Z,12.20
2019-03-20T07:38:02.997Z,11.67
2019-03-20T07:40:59.101Z,11.20
2019-03-20T07:43:56.910Z,11.60
2019-03-20T07:46:43.453Z,11.33
2019-03-20T07:49:29.621Z,11.13
2019-03-20T07:52:15.921Z,11.17
2019-03-20T07:55:02.113Z,10.07
2019-03-20T07:57:49.033Z,9.67
2019-03-20T08:00:35.432Z,9.77
2019-03-20T08:03:21.534Z,10.97
2019-03-20T08:06:08.073Z,10.17
2019-03-20T08:08:53.829Z,10.57
2019-03-20T08:11:39.983Z,11.23
2019-03-20T08:14:26.383Z,10.43
2019-03-20T08:17:13.546Z,9.53
2019-03-20T08:19:59.721Z,9.33
2019-03-20T08:22:47.917Z,10.00
2019-03-20T08:25:34.867Z,9.67
2019-03-20T08:28:21.378Z,10.13
2019-03-20T08:31:07.809Z,9.60
2019-03-20T08:33:54.189Z,9.83
2019-03-20T08:36:40.083Z,9.33
2019-03-20T08:39:26.558Z,11.67
2019-03-20T08:42:12.830Z,8.70
2019-03-20T08:44:58.882Z,8.90
2019-03-20T08:47:45.760Z,9.23
2019-03-20T08:50:31.901Z,9.93
2019-03-20T08:53:17.998Z,9.70
2019-03-20T08:56:04.789Z,8.83
2019-03-20T08:58:51.018Z,7.90
2019-03-20T09:01:37.287Z,9.30
2019-03-20T09:04:24.300Z,8.97
2019-03-20T09:07:10.298Z,9.17
2019-03-20T09:09:56.374Z,7.33
2019-03-20T09:12:42.797Z,7.90
2019-03-20T09:15:28.889Z,8.73
2019-03-20T09:18:15.108Z,8.47
2019-03-20T09:21:01.958Z,7.70
2019-03-20T09:23:48.726Z,8.00
2019-03-20T09:26:34.738Z,7.63
2019-03-20T09:29:21.275Z,6.90
2019-03-20T09:32:07.310Z,6.90
2019-03-20T09:34:53.647Z,7.50
2019-03-20T09:37:50.941Z,7.53
2019-03-20T09:40:28.571Z,7.53
2019-03-20T09:43:14.654Z,7.10
2019-03-20T09:46:01.270Z,8.17
2019-03-20T09:48:47.230Z,7.63
2019-03-20T09:51:33.367Z,7.10
2019-03-20T09:54:20.991Z,7.50
2019-03-20T09:57:07.289Z,7.77
2019-03-20T09:59:53.396Z,6.63
2019-03-20T10:02:39.692Z,7.53
2019-03-20T10:05:25.686Z,7.87
2019-03-20T10:08:11.988Z,8.60
2019-03-20T10:10:58.128Z,9.77
2019-03-20T10:13:44.195Z,8.30
2019-03-20T10:16:31.098Z,7.93
2019-03-20T10:19:16.991Z,8.30
2019-03-20T10:22:03.599Z,8.33
2019-03-20T10:24:51.312Z,8.53
2019-03-20T10:27:39.662Z,8.43
2019-03-20T10:30:26.004Z,8.07
2019-03-20T10:33:12.484Z,7.40
2019-03-20T10:35:58.681Z,8.03
2019-03-20T10:38:44.883Z,8.97
2019-03-20T10:41:31.678Z,8.27
2019-03-20T10:44:18.401Z,8.13
2019-03-20T10:47:04.904Z,8.33
2019-03-20T10:49:51.616Z,7.63
2019-03-20T10:52:37.301Z,7.67
2019-03-20T10:55:23.720Z,8.63
2019-03-20T10:58:10.531Z,8.50
2019-03-20T11:00:57.334Z,8.30
2019-03-20T11:03:43.629Z,8.57
2019-03-20T11:06:30.066Z,8.80
2019-03-20T11:09:18.505Z,9.70
2019-03-20T11:12:04.284Z,10.00
2019-03-20T11:14:50.189Z,10.03
2019-03-20T11:17:36.780Z,8.83
2019-03-20T11:20:23.591Z,8.93
2019-03-20T11:23:09.475Z,9.87
2019-03-20T11:25:55.676Z,9.83
2019-03-20T11:28:41.984Z,10.30
2019-03-20T11:31:28.475Z,10.53
2019-03-20T11:34:15.428Z,10.00
2019-03-20T11:37:01.581Z,10.03
2019-03-20T11:39:47.579Z,10.30
2019-03-20T11:42:34.281Z,9.97
2019-03-20T11:45:19.906Z,9.77
2019-03-20T11:48:05.655Z,10.30
2019-03-20T11:50:52.366Z,10.83
2019-03-20T11:53:38.874Z,9.47
2019-03-20T11:56:25.146Z,10.00
2019-03-20T11:59:11.577Z,8.07
2019-03-20T12:01:57.673Z,7.37
2019-03-20T12:04:43.565Z,7.77
2019-03-20T12:07:30.518Z,7.40
2019-03-20T12:10:18.708Z,7.83
2019-03-20T12:13:05.328Z,6.77
2019-03-20T12:15:52.032Z,6.13
2019-03-20T12:18:38.841Z,5.37
2019-03-20T12:21:24.843Z,4.97
2019-03-20T12:24:11.858Z,4.90
2019-03-20T12:26:58.173Z,3.50
2019-03-20T12:29:43.957Z,3.80
2019-03-20T12:32:32.961Z,4.53
2019-03-20T12:35:19.909Z,3.77
2019-03-20T12:38:14.296Z,3.00
2019-03-20T12:40:54.744Z,4.33
2019-03-20T12:43:41.017Z,2.67
2019-03-20T12:46:40.949Z,2.23
2019-03-20T12:49:17.080Z,2.60
2019-03-20T12:52:03.483Z,3.03
2019-03-20T12:54:50.297Z,3.57
2019-03-20T12:57:37.010Z,3.37
2019-03-20T13:00:22.800Z,3.60
2019-03-20T13:03:09.741Z,3.63
2019-03-20T13:05:55.709Z,3.80
2019-03-20T13:08:41.904Z,3.27
2019-03-20T13:11:30.649Z,3.93
2019-03-20T13:14:17.733Z,3.50
2019-03-20T13:17:03.656Z,3.33
2019-03-20T13:19:50.116Z,3.53
2019-03-20T13:22:35.981Z,4.00
2019-03-20T13:25:22.277Z,3.30
2019-03-20T13:28:08.981Z,3.30
2019-03-20T13:30:58.448Z,3.67
2019-03-20T13:33:44.656Z,3.33
2019-03-20T13:36:31.464Z,3.03
2019-03-20T13:39:17.592Z,3.60
2019-03-20T13:42:03.872Z,3.33
2019-03-20T13:44:49.658Z,3.33
2019-03-20T13:47:36.026Z,3.03
2019-03-20T13:50:22.728Z,3.47
2019-03-20T13:53:08.689Z,3.53
2019-03-20T13:55:54.550Z,3.67
2019-03-20T13:58:42.088Z,3.17
2019-03-20T14:01:28.181Z,3.13
2019-03-20T14:04:14.265Z,3.67
2019-03-20T14:07:00.860Z,3.73
2019-03-20T14:09:47.093Z,3.23
2019-03-20T14:12:33.584Z,3.40
2019-03-20T14:15:20.377Z,3.80
2019-03-20T14:18:06.473Z,3.13
2019-03-20T14:20:52.517Z,3.50
2019-03-20T14:23:39.074Z,3.10
2019-03-20T14:26:24.921Z,3.97
2019-03-20T14:29:11.879Z,4.13
2019-03-20T14:32:00.021Z,4.07
2019-03-20T14:34:46.693Z,3.57
2019-03-20T14:37:33.092Z,3.37
2019-03-20T14:40:21.784Z,3.40
2019-03-20T14:43:08.263Z,3.90
2019-03-20T14:45:54.351Z,3.10
2019-03-20T14:48:41.098Z,3.67
2019-03-20T14:51:28.623Z,3.40
2019-03-20T14:54:14.898Z,3.83
2019-03-20T14:57:00.917Z,5.10
2019-03-20T14:59:47.320Z,3.57
2019-03-20T15:02:33.325Z,3.70
2019-03-20T15:05:19.509Z,3.60
2019-03-20T15:08:06.529Z,3.33
2019-03-20T15:10:52.833Z,4.47
2019-03-20T15:13:38.721Z,5.00
2019-03-20T15:16:25.893Z,4.10
2019-03-20T15:19:11.829Z,4.37
2019-03-20T15:21:59.744Z,4.20
2019-03-20T15:24:45.767Z,3.90
2019-03-20T15:27:31.857Z,4.60
2019-03-20T15:30:19.141Z,4.97
2019-03-20T15:33:05.654Z,4.73
2019-03-20T15:35:59.186Z,4.70
2019-03-20T15:38:52.693Z,4.43
2019-03-20T15:41:39.849Z,4.87
2019-03-20T15:44:27.072Z,4.07
2019-03-20T15:47:13.159Z,4.93
2019-03-20T15:50:00.989Z,5.10
2019-03-20T15:52:47.719Z,5.33
2019-03-20T15:55:34.004Z,4.77
2019-03-20T15:58:22.470Z,5.20
2019-03-20T16:01:09.670Z,5.13
2019-03-20T16:03:55.731Z,4.73
2019-03-20T16:06:42.372Z,5.40
2019-03-20T16:09:29.147Z,5.10
2019-03-20T16:12:15.274Z,5.07
2019-03-20T16:15:01.490Z,5.73
2019-03-20T16:17:47.837Z,5.70
2019-03-20T16:20:33.663Z,6.30
2019-03-20T16:23:20.148Z,5.57
2019-03-20T16:26:06.609Z,5.67
2019-03-20T16:28:55.119Z,7.23
2019-03-20T16:31:55.010Z,6.40
2019-03-20T16:34:50.872Z,6.53
2019-03-20T16:37:48.667Z,6.43
2019-03-20T16:40:35.626Z,6.27
2019-03-20T16:43:21.587Z,7.00
2019-03-20T16:46:10.031Z,6.50
2019-03-20T16:48:56.327Z,6.93
2019-03-20T16:51:42.019Z,6.97
2019-03-20T16:54:28.970Z,7.37
2019-03-20T16:57:14.819Z,7.73
2019-03-20T17:00:01.055Z,7.23
2019-03-20T17:02:47.436Z,7.23
2019-03-20T17:05:33.527Z,7.90
2019-03-20T17:08:19.520Z,7.20
2019-03-20T17:11:06.331Z,7.93
2019-03-20T17:13:52.048Z,8.03
2019-03-20T17:16:42.793Z,7.83
2019-03-20T17:19:26.252Z,8.00
2019-03-20T17:22:12.351Z,8.13
2019-03-20T17:24:59.040Z,7.87
2019-03-20T17:27:45.147Z,8.33
2019-03-20T17:30:33.072Z,8.50
2019-03-20T17:33:19.492Z,8.77
2019-03-20T17:36:05.484Z,8.87
2019-03-20T17:38:51.786Z,7.80
2019-03-20T17:41:40.543Z,9.50
2019-03-20T17:44:26.459Z,7.93
2019-03-20T17:47:14.108Z,7.60
2019-03-20T17:50:00.430Z,8.00
2019-03-20T17:52:46.493Z,8.10
2019-03-20T17:55:33.229Z,8.10
2019-03-20T17:58:19.789Z,9.33
2019-03-20T18:01:06.811Z,9.30
2019-03-20T18:03:52.982Z,8.60
2019-03-20T18:06:39.456Z,8.53
2019-03-20T18:09:26.017Z,9.73
2019-03-20T18:12:12.017Z,9.57
2019-03-20T18:14:58.369Z,8.90
2019-03-20T18:17:44.607Z,10.17
2019-03-20T18:20:30.393Z,9.37
2019-03-20T18:23:19.468Z,10.13
2019-03-20T18:26:05.458Z,9.50
2019-03-20T18:28:51.669Z,9.23
2019-03-20T18:31:45.768Z,10.40
2019-03-20T18:34:27.425Z,11.03
2019-03-20T18:37:13.825Z,10.20
2019-03-20T18:40:00.545Z,10.47
2019-03-20T18:42:46.419Z,10.97
2019-03-20T18:45:32.509Z,11.23
2019-03-20T18:48:20.245Z,10.77
2019-03-20T18:51:06.509Z,11.17
2019-03-20T18:53:53.278Z,11.30
2019-03-20T18:56:39.560Z,11.73
2019-03-20T18:59:25.877Z,11.63
2019-03-20T19:02:12.567Z,12.27
2019-03-20T19:04:58.870Z,13.03
2019-03-20T19:07:45.298Z,12.90
2019-03-20T19:10:32.500Z,12.30
2019-03-20T19:13:20.135Z,12.73
2019-03-20T19:16:06.236Z,11.93
2019-03-20T19:18:52.914Z,11.90
2019-03-20T19:21:39.349Z,12.47
2019-03-20T19:24:25.566Z,11.80
2019-03-20T19:27:12.172Z,13.43
2019-03-20T19:29:58.253Z,12.33
2019-03-20T19:32:45.077Z,12.97
2019-03-20T19:35:45.166Z,12.17
2019-03-20T19:38:35.101Z,11.83
2019-03-20T19:41:21.065Z,11.63
2019-03-20T19:44:07.262Z,12.63
2019-03-20T19:46:53.257Z,11.43
2019-03-20T19:49:39.558Z,12.23
2019-03-20T19:52:25.541Z,12.23
2019-03-20T19:55:13.581Z,11.40
2019-03-20T19:57:59.988Z,12.07
2019-03-20T20:00:46.178Z,11.73
2019-03-20T20:03:32.383Z,12.17
2019-03-20T20:06:22.028Z,12.80
2019-03-20T20:09:08.687Z,13.40
2019-03-20T20:11:54.666Z,13.57
2019-03-20T20:14:41.649Z,13.40
2019-03-20T20:17:27.989Z,12.57
2019-03-20T20:20:16.290Z,14.20
2019-03-20T20:23:04.378Z,13.67
2019-03-20T20:25:50.487Z,14.13
2019-03-20T20:28:37.824Z,13.63
2019-03-20T20:31:24.087Z,12.03
2019-03-20T20:34:09.978Z,12.90
2019-03-20T20:36:58.020Z,12.37
2019-03-20T20:39:44.631Z,13.33
2019-03-20T20:42:42.593Z,13.73
2019-03-20T20:45:21.963Z,12.90
2019-03-20T20:48:08.449Z,14.10
2019-03-20T20:50:55.061Z,13.33
2019-03-20T20:53:41.907Z,14.60
2019-03-20T20:56:27.755Z,14.53
2019-03-20T20:59:14.555Z,14.37
2019-03-20T21:02:01.465Z,14.53
2019-03-20T21:04:47.875Z,16.20
2019-03-20T21:07:34.903Z,16.03
2019-03-20T21:10:21.186Z,16.30
2019-03-20T21:13:08.511Z,16.47
2019-03-20T21:15:58.527Z,17.50
2019-03-20T21:19:30.877Z,17.87
2019-03-20T21:23:00.484Z,16.47
2019-03-20T21:25:49.342Z,18.47
2019-03-20T21:29:33.094Z,17.03
2019-03-20T21:32:36.706Z,17.67
2019-03-20T21:36:06.170Z,17.67
2019-03-20T21:38:54.779Z,17.60
2019-03-20T21:42:28.371Z,16.13
2019-03-20T21:45:39.551Z,15.53
2019-03-20T21:48:27.080Z,15.50
2019-03-20T21:51:15.686Z,14.80
2019-03-20T21:54:41.357Z,15.73
2019-03-20T21:58:07.585Z,13.77
2019-03-20T22:01:44.887Z,13.53
2019-03-20T22:04:31.696Z,15.03
2019-03-20T22:07:18.722Z,13.07
2019-03-20T22:10:43.619Z,13.60
2019-03-20T22:13:39.965Z,11.90
2019-03-20T22:17:09.782Z,13.10
2019-03-20T22:20:17.731Z,11.87
2019-03-20T22:23:29.983Z,12.87
2019-03-20T22:26:41.527Z,13.10
2019-03-20T22:29:28.332Z,12.37
2019-03-20T22:33:10.094Z,11.93
2019-03-20T22:36:03.747Z,12.40
2019-03-20T22:39:29.598Z,12.63
2019-03-20T22:42:36.175Z,11.97
2019-03-20T22:45:57.491Z,12.43
2019-03-20T22:49:13.179Z,11.53
2019-03-20T22:52:29.380Z,11.53
2019-03-20T22:55:53.667Z,12.07
2019-03-20T22:58:44.086Z,11.63
2019-03-20T23:13:52.863Z,11.33
2019-03-20T23:16:39.986Z,11.23
2019-03-20T23:19:26.019Z,9.80
2019-03-20T23:22:13.151Z,11.33
2019-03-20T23:24:59.490Z,9.33
2019-03-20T23:27:45.719Z,11.07
2019-03-20T23:30:32.102Z,10.50
2019-03-20T23:33:18.682Z,10.47
2019-03-20T23:36:05.104Z,10.07
2019-03-20T23:38:51.011Z,9.90
2019-03-20T23:41:37.222Z,10.77
2019-03-20T23:44:24.058Z,10.97
2019-03-20T23:47:10.375Z,10.53
2019-03-20T23:49:56.286Z,11.17
2019-03-20T23:52:42.478Z,10.93
2019-03-20T23:55:28.686Z,10.77
2019-03-20T23:58:15.280Z,9.93
